Tributaries of Vltava river

river Berounka - water gauge Beroun

Date and time (UTC) H (cm) Q (m³/s)
1. 3. 2021 01:20 127 38.5
1. 3. 2021 01:00 127 39
1. 3. 2021 00:00 128 39
28. 2. 2021 23:00 128 39
28. 2. 2021 22:00 128 39
28. 2. 2021 21:00 128 39
28. 2. 2021 20:00 128 39
28. 2. 2021 19:00 128 39
28. 2. 2021 18:00 129 40
28. 2. 2021 17:00 129 40
28. 2. 2021 16:00 130 41
28. 2. 2021 15:00 130 41
28. 2. 2021 14:00 129 40
28. 2. 2021 13:00 130 41

H - water level, Q - discharge

river Sázava - water gauge Nespeky

Date and time (UTC) H (cm) Q (m³/s)
1. 3. 2021 01:20 144 42
1. 3. 2021 01:00 144 42
1. 3. 2021 00:00 144 42
28. 2. 2021 23:00 145 42
28. 2. 2021 22:00 145 42
28. 2. 2021 21:00 146 43
28. 2. 2021 20:00 147 43
28. 2. 2021 19:00 147 43
28. 2. 2021 18:00 147 43
28. 2. 2021 17:00 147 43
28. 2. 2021 16:00 146 43
28. 2. 2021 15:00 146 43
28. 2. 2021 14:00 146 43
28. 2. 2021 13:00 146 43

H - water level, Q - discharge

river Otava - water gauge Písek

Date and time (UTC) H (cm) Q (m³/s)
1. 3. 2021 01:20 98 23.7
1. 3. 2021 01:00 98 24
1. 3. 2021 00:00 98 24
28. 2. 2021 23:00 98 24
28. 2. 2021 22:00 98 24
28. 2. 2021 21:00 98 24
28. 2. 2021 20:00 98 24
28. 2. 2021 19:00 98 24
28. 2. 2021 18:00 99 24
28. 2. 2021 17:00 99 24
28. 2. 2021 16:00 99 24
28. 2. 2021 15:00 99 24
28. 2. 2021 14:00 99 24
28. 2. 2021 13:00 99 24

H - water level, Q - discharge

river Lužnice - water gauge Bechyně

Date and time (UTC) H (cm) Q (m³/s)
1. 3. 2021 01:20 171 35.9
1. 3. 2021 01:00 170 35
1. 3. 2021 00:00 171 36
28. 2. 2021 23:00 171 36
28. 2. 2021 22:00 171 36
28. 2. 2021 21:00 171 36
28. 2. 2021 20:00 171 36
28. 2. 2021 19:00 171 36
28. 2. 2021 18:00 171 36
28. 2. 2021 17:00 172 37
28. 2. 2021 16:00 171 36
28. 2. 2021 15:00 171 36
28. 2. 2021 14:00 171 36
28. 2. 2021 13:00 172 37

H - water level, Q - discharge
Source data
Labe Basin Vltava Basin Povodí Moravy ČHMÚ